createdAt,value
2018-06-28T00:00:21.187Z,99.90
2018-06-28T00:02:48.551Z,99.90
2018-06-28T00:05:15.914Z,99.90
2018-06-28T00:07:43.279Z,99.90
2018-06-28T00:10:10.604Z,99.90
2018-06-28T00:12:37.953Z,99.90
2018-06-28T00:15:05.586Z,99.90
2018-06-28T00:17:32.904Z,99.90
2018-06-28T00:20:00.292Z,99.90
2018-06-28T00:22:27.704Z,99.90
2018-06-28T00:24:55.060Z,99.90
2018-06-28T00:27:22.395Z,99.90
2018-06-28T00:29:49.724Z,99.90
2018-06-28T00:32:17.809Z,99.90
2018-06-28T00:34:45.144Z,99.90
2018-06-28T00:37:12.472Z,99.90
2018-06-28T00:39:39.886Z,99.90
2018-06-28T00:42:07.237Z,99.90
2018-06-28T00:44:34.584Z,99.90
2018-06-28T00:47:01.939Z,99.90
2018-06-28T00:49:29.332Z,99.90
2018-06-28T00:51:56.660Z,99.90
2018-06-28T00:54:24.281Z,99.90
2018-06-28T00:56:51.603Z,99.90
2018-06-28T00:59:18.937Z,99.90
2018-06-28T01:01:46.261Z,99.90
2018-06-28T01:04:13.608Z,99.90
2018-06-28T01:06:41.007Z,99.90
2018-06-28T01:09:08.883Z,99.90
2018-06-28T01:11:36.239Z,99.90
2018-06-28T01:14:03.571Z,99.90
2018-06-28T01:16:30.903Z,99.90
2018-06-28T01:18:58.226Z,99.90
2018-06-28T01:21:25.536Z,99.90
2018-06-28T01:23:52.893Z,99.90
2018-06-28T01:26:20.245Z,99.90
2018-06-28T01:28:47.603Z,99.90
2018-06-28T01:31:14.959Z,99.90
2018-06-28T01:33:42.338Z,99.90
2018-06-28T01:36:09.666Z,99.90
2018-06-28T01:41:04.274Z,99.90
2018-06-28T01:43:34.802Z,99.90
2018-06-28T01:46:02.176Z,99.90
2018-06-28T01:48:29.511Z,99.90
2018-06-28T01:50:57.107Z,99.90
2018-06-28T01:53:24.471Z,99.90
2018-06-28T01:55:51.767Z,99.90
2018-06-28T01:58:19.524Z,99.90
2018-06-28T02:00:46.875Z,99.90
2018-06-28T02:03:14.441Z,99.90
2018-06-28T02:05:41.812Z,99.90
2018-06-28T02:08:09.159Z,99.90
2018-06-28T02:10:36.647Z,99.90
2018-06-28T02:13:04.532Z,99.90
2018-06-28T02:15:32.000Z,99.90
2018-06-28T02:17:59.341Z,99.90
2018-06-28T02:20:26.869Z,99.90
2018-06-28T02:22:54.532Z,99.90
2018-06-28T02:25:21.835Z,99.90
2018-06-28T02:27:49.448Z,99.90
2018-06-28T02:30:16.767Z,99.90
2018-06-28T02:32:44.101Z,99.90
2018-06-28T02:35:11.420Z,99.90
2018-06-28T02:37:38.759Z,99.90
2018-06-28T02:40:06.307Z,99.90
2018-06-28T02:42:33.634Z,99.90
2018-06-28T02:45:00.978Z,99.90
2018-06-28T02:47:28.355Z,99.90
2018-06-28T02:49:55.686Z,99.90
2018-06-28T02:52:22.994Z,99.90
2018-06-28T02:54:50.358Z,99.90
2018-06-28T02:57:17.675Z,99.90
2018-06-28T02:59:45.072Z,99.90
2018-06-28T03:02:12.465Z,99.90
2018-06-28T03:04:39.816Z,99.90
2018-06-28T03:07:07.147Z,99.90
2018-06-28T03:09:34.552Z,99.90
2018-06-28T03:12:01.895Z,99.90
2018-06-28T03:14:29.228Z,99.90
2018-06-28T03:16:56.560Z,99.90
2018-06-28T03:19:23.920Z,99.90
2018-06-28T03:21:51.256Z,99.90
2018-06-28T03:24:19.004Z,99.90
2018-06-28T03:26:46.459Z,99.90
2018-06-28T03:29:14.007Z,99.90
2018-06-28T03:31:41.332Z,99.90
2018-06-28T03:34:08.664Z,99.90
2018-06-28T03:36:36.122Z,99.90
2018-06-28T03:39:05.455Z,99.90
2018-06-28T03:41:32.775Z,99.90
2018-06-28T03:44:00.181Z,99.90
2018-06-28T03:46:27.536Z,99.90
2018-06-28T03:48:54.872Z,99.90
2018-06-28T03:51:22.199Z,99.90
2018-06-28T03:53:49.542Z,99.90
2018-06-28T03:56:16.904Z,99.90
2018-06-28T03:58:44.270Z,99.90
2018-06-28T04:01:11.595Z,99.90
2018-06-28T04:03:38.979Z,99.90
2018-06-28T04:06:06.328Z,99.90
2018-06-28T04:08:33.656Z,99.90
2018-06-28T04:11:01.085Z,99.90
2018-06-28T04:13:28.456Z,99.90
2018-06-28T04:15:55.771Z,99.90
2018-06-28T04:18:23.203Z,99.90
2018-06-28T04:20:50.992Z,99.90
2018-06-28T04:23:18.436Z,99.90
2018-06-28T04:25:45.782Z,99.90
2018-06-28T04:28:13.151Z,99.90
2018-06-28T04:30:40.486Z,99.90
2018-06-28T04:33:07.850Z,99.90
2018-06-28T04:35:35.268Z,99.90
2018-06-28T04:38:02.636Z,99.90
2018-06-28T04:40:29.982Z,99.90
2018-06-28T04:42:57.311Z,99.90
2018-06-28T04:45:24.666Z,99.90
2018-06-28T04:47:51.999Z,99.90
2018-06-28T04:50:19.333Z,99.90
2018-06-28T04:52:46.665Z,99.90
2018-06-28T04:55:14.040Z,99.90
2018-06-28T04:57:41.347Z,99.90
2018-06-28T05:00:08.700Z,99.90
2018-06-28T05:02:36.055Z,99.90
2018-06-28T05:05:03.468Z,99.90
2018-06-28T05:07:30.822Z,99.90
2018-06-28T05:09:58.269Z,99.90
2018-06-28T05:12:25.713Z,99.90
2018-06-28T05:14:53.063Z,99.90
2018-06-28T05:17:20.496Z,99.90
2018-06-28T05:19:47.851Z,99.90
2018-06-28T05:22:15.298Z,99.90
2018-06-28T05:24:42.581Z,99.90
2018-06-28T05:27:09.912Z,99.90
2018-06-28T05:29:37.326Z,99.90
2018-06-28T05:32:04.695Z,99.90
2018-06-28T05:34:32.237Z,99.90
2018-06-28T05:36:59.569Z,99.90
2018-06-28T05:39:26.923Z,99.90
2018-06-28T05:41:54.280Z,99.90
2018-06-28T05:44:22.163Z,99.90
2018-06-28T05:46:49.497Z,99.90
2018-06-28T05:49:16.823Z,99.90
2018-06-28T05:51:44.206Z,99.90
2018-06-28T05:54:11.645Z,99.90
2018-06-28T05:59:06.395Z,99.90
2018-06-28T06:01:34.156Z,99.90
2018-06-28T06:04:01.616Z,99.90
2018-06-28T06:06:28.968Z,99.90
2018-06-28T06:08:56.304Z,99.90
2018-06-28T06:11:23.662Z,99.90
2018-06-28T06:13:51.080Z,99.90
2018-06-28T06:16:18.370Z,99.90
2018-06-28T06:18:45.728Z,99.90
2018-06-28T06:21:13.083Z,99.90
2018-06-28T06:23:40.464Z,99.90
2018-06-28T06:26:07.803Z,99.90
2018-06-28T06:28:35.182Z,99.90
2018-06-28T06:31:02.521Z,99.90
2018-06-28T06:33:29.876Z,99.90
2018-06-28T06:35:57.228Z,99.90
2018-06-28T06:38:24.599Z,99.90
2018-06-28T06:40:51.996Z,99.90
2018-06-28T06:43:19.346Z,99.90
2018-06-28T06:45:46.712Z,99.90
2018-06-28T06:48:14.180Z,99.90
2018-06-28T06:50:41.568Z,99.90
2018-06-28T06:53:08.923Z,99.90
2018-06-28T06:55:36.403Z,99.90
2018-06-28T06:58:03.744Z,99.90
2018-06-28T07:00:31.112Z,99.90
2018-06-28T07:02:58.550Z,99.90
2018-06-28T07:05:26.002Z,99.90
2018-06-28T07:07:53.468Z,99.90
2018-06-28T07:10:20.938Z,99.90
2018-06-28T07:12:48.196Z,99.90
2018-06-28T07:15:15.521Z,99.90
2018-06-28T07:17:42.926Z,99.90
2018-06-28T07:20:10.238Z,99.90
2018-06-28T07:22:37.590Z,99.90
2018-06-28T07:25:04.969Z,99.90
2018-06-28T07:27:32.301Z,99.90
2018-06-28T07:29:59.659Z,99.90
2018-06-28T07:32:27.008Z,99.90
2018-06-28T07:34:54.366Z,99.90
2018-06-28T07:37:21.723Z,99.90
2018-06-28T07:39:49.079Z,99.90
2018-06-28T07:42:16.620Z,99.90
2018-06-28T07:44:43.995Z,99.90
2018-06-28T07:47:11.544Z,99.90
2018-06-28T07:49:38.698Z,99.90
2018-06-28T07:52:06.156Z,99.90
2018-06-28T07:54:33.563Z,99.90
2018-06-28T07:57:00.937Z,99.90
2018-06-28T07:59:28.284Z,99.90
2018-06-28T08:01:55.617Z,99.90
2018-06-28T08:04:23.115Z,99.90
2018-06-28T08:06:50.494Z,99.90
2018-06-28T08:09:17.853Z,99.90
2018-06-28T08:11:45.306Z,99.90
2018-06-28T08:14:12.660Z,99.90
2018-06-28T08:16:39.993Z,99.90
2018-06-28T08:19:07.377Z,99.90
2018-06-28T08:21:34.762Z,99.90
2018-06-28T08:24:02.065Z,99.90
2018-06-28T08:26:29.394Z,99.90
2018-06-28T08:28:56.779Z,99.90
2018-06-28T08:31:31.333Z,99.90
2018-06-28T08:33:58.753Z,99.90
2018-06-28T08:36:26.091Z,99.90
2018-06-28T08:38:53.433Z,99.90
2018-06-28T08:41:20.812Z,99.90
2018-06-28T08:43:48.218Z,99.90
2018-06-28T08:46:15.540Z,99.90
2018-06-28T08:48:42.948Z,99.90
2018-06-28T08:51:10.307Z,99.90
2018-06-28T08:53:37.652Z,99.90
2018-06-28T08:56:05.072Z,99.90
2018-06-28T08:58:32.522Z,99.90
2018-06-28T09:00:59.986Z,99.90
2018-06-28T09:03:27.503Z,99.90
2018-06-28T09:05:55.273Z,99.90
2018-06-28T09:08:22.540Z,99.90
2018-06-28T09:10:49.903Z,99.90
2018-06-28T09:13:17.250Z,99.90
2018-06-28T09:15:44.620Z,99.90
2018-06-28T09:18:11.979Z,99.90
2018-06-28T09:20:39.486Z,99.90
2018-06-28T09:23:06.967Z,99.90
2018-06-28T09:25:34.236Z,99.90
2018-06-28T09:28:01.580Z,99.90
2018-06-28T09:30:28.956Z,99.90
2018-06-28T09:32:56.308Z,99.90
2018-06-28T09:35:23.656Z,99.90
2018-06-28T09:37:51.002Z,99.90
2018-06-28T09:40:18.359Z,99.90
2018-06-28T09:42:45.728Z,99.90
2018-06-28T09:45:13.069Z,99.90
2018-06-28T09:47:40.424Z,99.90
2018-06-28T09:50:07.782Z,99.90
2018-06-28T09:52:35.137Z,99.90
2018-06-28T09:55:02.505Z,99.90
2018-06-28T09:57:29.895Z,99.90
2018-06-28T09:59:57.616Z,99.90
2018-06-28T10:02:25.115Z,99.90
2018-06-28T10:04:52.427Z,99.90
2018-06-28T10:07:19.748Z,99.90
2018-06-28T10:09:47.119Z,99.90
2018-06-28T10:12:14.456Z,99.90
2018-06-28T10:14:41.922Z,99.90
2018-06-28T10:17:09.345Z,99.90
2018-06-28T10:19:36.700Z,99.90
2018-06-28T10:22:04.030Z,99.90
2018-06-28T10:24:31.648Z,99.90
2018-06-28T10:26:59.025Z,99.90
2018-06-28T10:29:26.842Z,99.90
2018-06-28T10:31:54.168Z,99.90
2018-06-28T10:34:21.521Z,99.90
2018-06-28T10:36:48.959Z,99.90
2018-06-28T10:39:16.335Z,99.90
2018-06-28T10:41:43.687Z,99.90
2018-06-28T10:44:11.022Z,99.90
2018-06-28T10:46:38.377Z,99.90
2018-06-28T10:49:05.907Z,99.90
2018-06-28T10:51:33.256Z,99.90
2018-06-28T10:54:00.725Z,99.90
2018-06-28T10:56:28.166Z,99.90
2018-06-28T10:58:55.644Z,99.90
2018-06-28T11:01:23.088Z,99.90
2018-06-28T11:06:17.730Z,99.90
2018-06-28T11:08:45.102Z,99.90
2018-06-28T11:11:12.455Z,99.90
2018-06-28T11:13:39.804Z,99.90
2018-06-28T11:16:07.217Z,99.90
2018-06-28T11:21:01.682Z,99.90
2018-06-28T11:23:29.125Z,99.90
2018-06-28T11:25:56.740Z,99.90
2018-06-28T11:28:27.023Z,99.90
2018-06-28T11:30:54.408Z,99.90
2018-06-28T11:33:21.724Z,99.90
2018-06-28T11:35:49.075Z,99.90
2018-06-28T11:38:16.523Z,99.90
2018-06-28T11:40:43.886Z,99.90
2018-06-28T11:43:11.244Z,99.90
2018-06-28T11:45:38.588Z,99.90
2018-06-28T11:48:05.960Z,99.90
2018-06-28T11:50:33.284Z,99.90
2018-06-28T11:53:00.635Z,99.90
2018-06-28T11:55:27.994Z,99.90
2018-06-28T11:57:55.352Z,99.90
2018-06-28T12:00:22.657Z,99.90
2018-06-28T12:02:50.012Z,99.90
2018-06-28T12:05:17.363Z,99.90
2018-06-28T12:07:44.725Z,99.90
2018-06-28T12:10:12.394Z,99.90
2018-06-28T12:12:39.714Z,99.90
2018-06-28T12:15:07.055Z,99.90
2018-06-28T12:17:34.408Z,99.90
2018-06-28T12:20:01.984Z,99.90
2018-06-28T12:22:29.378Z,99.90
2018-06-28T12:24:56.922Z,99.90
2018-06-28T12:27:24.264Z,99.90
2018-06-28T12:29:51.603Z,99.90
2018-06-28T12:32:18.976Z,99.90
2018-06-28T12:34:46.316Z,99.90
2018-06-28T12:39:40.819Z,99.90
2018-06-28T12:42:08.176Z,99.90
2018-06-28T12:44:35.528Z,99.90
2018-06-28T12:47:33.875Z,99.20
2018-06-28T12:50:01.253Z,96.70
2018-06-28T12:52:34.889Z,96.30
2018-06-28T12:55:02.285Z,94.10
2018-06-28T12:57:29.628Z,92.80
2018-06-28T12:59:57.072Z,92.70
2018-06-28T13:02:24.272Z,92.60
2018-06-28T13:04:51.649Z,91.90
2018-06-28T13:07:19.003Z,91.10
2018-06-28T13:09:46.359Z,91.00
2018-06-28T13:12:13.724Z,91.30
2018-06-28T13:14:41.063Z,91.80
2018-06-28T13:17:08.424Z,91.50
2018-06-28T13:19:35.759Z,90.10
2018-06-28T13:22:03.216Z,88.70
2018-06-28T13:24:30.576Z,88.00
2018-06-28T13:26:57.927Z,90.00
2018-06-28T13:29:25.268Z,91.20
2018-06-28T13:31:52.602Z,91.60
2018-06-28T13:36:47.175Z,90.20
2018-06-28T13:39:14.596Z,88.80
2018-06-28T13:41:42.215Z,88.60
2018-06-28T13:44:09.219Z,86.90
2018-06-28T13:46:36.575Z,88.20
2018-06-28T13:49:04.099Z,88.40
2018-06-28T13:51:31.387Z,89.80
2018-06-28T13:53:58.731Z,89.80
2018-06-28T13:56:26.105Z,87.20
2018-06-28T13:58:53.436Z,84.10
2018-06-28T14:01:20.759Z,83.20
2018-06-28T14:03:48.100Z,81.00
2018-06-28T14:06:15.467Z,83.40
2018-06-28T14:08:49.434Z,85.60
2018-06-28T14:11:16.783Z,85.70
2018-06-28T14:13:44.157Z,85.80
2018-06-28T14:16:11.483Z,84.50
2018-06-28T14:18:38.838Z,82.80
2018-06-28T14:21:06.253Z,81.60
2018-06-28T14:23:33.583Z,80.90
2018-06-28T14:26:00.964Z,82.10
2018-06-28T14:28:28.302Z,82.30
2018-06-28T14:30:55.651Z,82.30
2018-06-28T14:33:23.010Z,82.40
2018-06-28T14:35:50.334Z,81.90
2018-06-28T14:38:17.686Z,82.60
2018-06-28T14:40:45.058Z,82.80
2018-06-28T14:43:12.386Z,83.40
2018-06-28T14:45:39.759Z,82.90
2018-06-28T14:48:07.295Z,80.10
2018-06-28T14:50:34.684Z,80.40
2018-06-28T14:53:02.019Z,82.70
2018-06-28T14:55:29.438Z,84.20
2018-06-28T14:57:56.749Z,85.00
2018-06-28T15:00:24.098Z,85.60
2018-06-28T15:02:51.444Z,85.90
2018-06-28T15:05:18.791Z,85.10
2018-06-28T15:07:46.164Z,83.10
2018-06-28T15:10:13.496Z,82.10
2018-06-28T15:12:40.877Z,81.70
2018-06-28T15:15:08.256Z,81.50
2018-06-28T15:17:35.583Z,80.50
2018-06-28T15:20:02.939Z,78.80
2018-06-28T15:24:58.403Z,76.90
2018-06-28T15:27:25.772Z,75.80
2018-06-28T15:29:53.060Z,75.40
2018-06-28T15:32:20.415Z,75.80
2018-06-28T15:34:47.755Z,77.80
2018-06-28T15:37:15.081Z,78.50
2018-06-28T15:39:42.450Z,80.00
2018-06-28T15:42:09.788Z,81.70
2018-06-28T15:44:37.130Z,81.10
2018-06-28T15:47:04.447Z,80.60
2018-06-28T15:49:31.800Z,78.70
2018-06-28T15:51:59.269Z,77.70
2018-06-28T15:54:26.613Z,78.50
2018-06-28T15:56:53.967Z,77.00
2018-06-28T15:59:21.337Z,77.30
2018-06-28T16:01:48.664Z,76.40
2018-06-28T16:04:16.019Z,76.00
2018-06-28T16:06:43.375Z,76.50
2018-06-28T16:09:11.190Z,76.80
2018-06-28T16:14:05.859Z,79.30
2018-06-28T16:16:33.285Z,79.50
2018-06-28T16:19:00.680Z,79.50
2018-06-28T16:21:28.040Z,79.50
2018-06-28T16:23:55.439Z,79.40
2018-06-28T16:26:22.767Z,79.60
2018-06-28T16:28:50.095Z,80.10
2018-06-28T16:33:44.628Z,81.10
2018-06-28T16:36:11.972Z,82.10
2018-06-28T16:38:39.335Z,81.50
2018-06-28T16:41:06.644Z,81.70
2018-06-28T16:43:34.011Z,81.90
2018-06-28T16:46:01.376Z,82.10
2018-06-28T16:48:28.783Z,83.20
2018-06-28T16:50:56.170Z,83.60
2018-06-28T16:53:23.543Z,84.00
2018-06-28T16:55:50.897Z,83.10
2018-06-28T16:58:18.232Z,82.30
2018-06-28T17:00:45.591Z,82.30
2018-06-28T17:03:15.069Z,83.20
2018-06-28T17:05:42.695Z,83.50
2018-06-28T17:08:10.181Z,83.70
2018-06-28T17:10:37.675Z,83.50
2018-06-28T17:13:05.143Z,83.20
2018-06-28T17:15:33.207Z,81.70
2018-06-28T17:18:00.559Z,81.60
2018-06-28T17:20:27.943Z,81.50
2018-06-28T17:22:55.263Z,81.50
2018-06-28T17:25:22.587Z,81.70
2018-06-28T17:27:50.016Z,81.60
2018-06-28T17:30:17.387Z,81.50
2018-06-28T17:32:44.754Z,82.30
2018-06-28T17:35:12.213Z,82.50
2018-06-28T17:37:39.574Z,82.30
2018-06-28T17:40:06.976Z,81.70
2018-06-28T17:42:34.331Z,81.30
2018-06-28T17:45:01.683Z,81.20
2018-06-28T17:47:29.035Z,81.40
2018-06-28T17:49:56.400Z,81.60
2018-06-28T17:52:23.748Z,81.80
2018-06-28T17:54:51.099Z,82.10
2018-06-28T17:57:18.516Z,81.90
2018-06-28T17:59:45.863Z,81.70
2018-06-28T18:04:40.419Z,80.20
2018-06-28T18:07:07.757Z,80.10
2018-06-28T18:09:35.078Z,80.70
2018-06-28T18:12:02.419Z,80.30
2018-06-28T18:14:29.788Z,80.00
2018-06-28T18:16:57.128Z,79.40
2018-06-28T18:19:24.481Z,79.10
2018-06-28T18:21:51.803Z,78.30
2018-06-28T18:24:19.168Z,77.30
2018-06-28T18:26:46.527Z,77.50
2018-06-28T18:29:13.910Z,77.80
2018-06-28T18:31:41.257Z,76.70
2018-06-28T18:34:08.575Z,76.00
2018-06-28T18:36:35.931Z,76.30
2018-06-28T18:39:06.084Z,76.00
2018-06-28T18:41:34.164Z,76.10
2018-06-28T18:44:01.531Z,75.40
2018-06-28T18:46:28.901Z,76.20
2018-06-28T18:48:56.228Z,76.50
2018-06-28T18:51:23.648Z,76.30
2018-06-28T18:53:51.057Z,76.20
2018-06-28T18:56:18.415Z,76.00
2018-06-28T18:58:45.816Z,76.40
2018-06-28T19:01:13.174Z,76.20
2018-06-28T19:03:40.528Z,75.80
2018-06-28T19:06:07.880Z,76.20
2018-06-28T19:08:35.273Z,76.40
2018-06-28T19:11:02.577Z,76.80
2018-06-28T19:13:30.064Z,76.70
2018-06-28T19:16:03.069Z,76.90
2018-06-28T19:18:31.196Z,77.10
2018-06-28T19:21:04.215Z,77.30
2018-06-28T19:23:37.109Z,78.20
2018-06-28T19:26:04.713Z,77.80
2018-06-28T19:28:32.053Z,78.40
2018-06-28T19:31:04.936Z,78.50
2018-06-28T19:33:32.276Z,78.50
2018-06-28T19:35:59.694Z,78.40
2018-06-28T19:38:31.503Z,78.60
2018-06-28T19:41:04.341Z,79.10
2018-06-28T19:43:31.688Z,78.70
2018-06-28T19:45:59.022Z,79.50
2018-06-28T19:48:26.399Z,79.40
2018-06-28T19:51:58.126Z,79.30
2018-06-28T19:54:25.674Z,79.30
2018-06-28T19:56:53.010Z,79.60
2018-06-28T19:59:20.371Z,80.40
2018-06-28T20:01:53.245Z,79.80
2018-06-28T20:04:26.239Z,79.80
2018-06-28T20:06:53.645Z,80.10
2018-06-28T20:09:21.020Z,80.50
2018-06-28T20:11:48.361Z,80.30
2018-06-28T20:14:21.307Z,80.60
2018-06-28T20:19:27.099Z,80.50
2018-06-28T20:21:54.473Z,80.40
2018-06-28T20:24:21.927Z,80.90
2018-06-28T20:26:54.712Z,80.50
2018-06-28T20:29:27.708Z,80.90
2018-06-28T20:32:00.659Z,80.90
2018-06-28T20:34:28.035Z,81.00
2018-06-28T20:36:55.403Z,81.40
2018-06-28T20:39:22.731Z,81.50
2018-06-28T20:41:50.067Z,81.20
2018-06-28T20:44:17.429Z,81.50
2018-06-28T20:46:44.775Z,81.30
2018-06-28T20:49:12.144Z,82.00
2018-06-28T20:51:39.475Z,81.50
2018-06-28T20:54:06.895Z,81.80
2018-06-28T20:56:34.252Z,81.90
2018-06-28T20:59:01.754Z,81.90
2018-06-28T21:01:29.154Z,82.10
2018-06-28T21:03:56.497Z,81.90
2018-06-28T21:06:23.820Z,81.90
2018-06-28T21:08:51.127Z,81.60
2018-06-28T21:11:18.561Z,82.10
2018-06-28T21:13:46.021Z,81.90
2018-06-28T21:16:13.423Z,82.00
2018-06-28T21:18:40.747Z,82.40
2018-06-28T21:21:08.138Z,82.30
2018-06-28T21:23:36.246Z,81.90
2018-06-28T21:26:03.590Z,83.00
2018-06-28T21:28:30.975Z,82.00
2018-06-28T21:30:58.355Z,82.40
2018-06-28T21:33:25.685Z,82.50
2018-06-28T21:35:53.142Z,82.70
2018-06-28T21:38:20.499Z,82.70
2018-06-28T21:40:47.835Z,83.30
2018-06-28T21:43:15.191Z,83.40
2018-06-28T21:45:42.532Z,83.50
2018-06-28T21:48:09.874Z,83.40
2018-06-28T21:50:37.271Z,83.80
2018-06-28T21:53:04.642Z,84.30
2018-06-28T21:55:32.040Z,84.50
2018-06-28T21:57:59.355Z,84.60
2018-06-28T22:00:28.618Z,84.90
2018-06-28T22:02:55.904Z,85.10
2018-06-28T22:05:23.246Z,84.90
2018-06-28T22:07:50.612Z,85.10
2018-06-28T22:10:17.915Z,85.40
2018-06-28T22:12:45.263Z,85.40
2018-06-28T22:15:17.112Z,85.60
2018-06-28T22:17:44.475Z,85.70
2018-06-28T22:20:11.810Z,86.30
2018-06-28T22:22:39.175Z,86.20
2018-06-28T22:25:06.975Z,86.40
2018-06-28T22:27:34.357Z,87.10
2018-06-28T22:30:01.686Z,86.90
2018-06-28T22:32:29.057Z,86.60
2018-06-28T22:34:56.417Z,87.00
2018-06-28T22:37:23.748Z,87.30
2018-06-28T22:39:51.090Z,87.20
2018-06-28T22:42:18.404Z,87.30
2018-06-28T22:44:45.779Z,87.40
2018-06-28T22:47:13.114Z,87.40
2018-06-28T22:49:40.431Z,87.60
2018-06-28T22:52:07.852Z,87.80
2018-06-28T22:54:35.172Z,87.90
2018-06-28T22:57:02.531Z,88.40
2018-06-28T22:59:29.880Z,88.40
2018-06-28T23:01:57.240Z,88.80
2018-06-28T23:04:24.667Z,88.60
2018-06-28T23:06:51.926Z,88.90
2018-06-28T23:09:19.251Z,89.10
2018-06-28T23:11:46.605Z,89.70
2018-06-28T23:14:13.959Z,89.50
2018-06-28T23:16:41.292Z,89.90
2018-06-28T23:19:08.686Z,89.80
2018-06-28T23:21:35.981Z,90.20
2018-06-28T23:24:03.313Z,90.20
2018-06-28T23:26:30.696Z,90.30
2018-06-28T23:28:58.875Z,90.30
2018-06-28T23:31:26.215Z,90.40
2018-06-28T23:33:53.556Z,90.50
2018-06-28T23:36:20.879Z,90.70
2018-06-28T23:38:48.247Z,90.70
2018-06-28T23:41:15.627Z,90.80
2018-06-28T23:43:42.994Z,90.80
2018-06-28T23:46:10.341Z,91.00
2018-06-28T23:48:38.020Z,91.10
2018-06-28T23:51:05.360Z,91.20
2018-06-28T23:53:32.675Z,91.40
2018-06-28T23:56:00.100Z,91.40
2018-06-28T23:58:27.410Z,91.50
